WetterOnline ( https://www.wetteronline.ch )

Wetter aktuell Arkona

Aktuelles Wetter: Kap Arkona/Rügen (42m)

6-stündlich | Neueste Meldungen
Ortszeit Temperatur Wetter
So, 15.09. 8:00 12.3° C bedeckt
So, 15.09. 2:00 12.1° C wolkig
Sa, 14.09. 20:00 13.5° C fast wolkenlos
Sa, 14.09. 14:00 15.9° C leicht bewölkt
Sa, 14.09. 8:00 13.5° C leicht bewölkt
Sa, 14.09. 2:00 13.8° C fast wolkenlos
Fr, 13.09. 20:00 15.9° C bewölkt
Fr, 13.09. 14:00 17.3° C leicht bewölkt
Ortszeit Temperatur Wetter
So, 15.09. 11:40 16.6° C bewölkt
So, 15.09. 11:30 17.2° C leicht bewölkt
So, 15.09. 11:20 17.2° C leicht bewölkt
So, 15.09. 11:10 16.9° C leicht bewölkt
So, 15.09. 11:00 16.5° C wolkenlos
So, 15.09. 10:50 16.5° C wolkenlos
So, 15.09. 10:30 15.4° C leicht bewölkt
So, 15.09. 10:00 14.8° C wolkig
So, 15.09. 9:30 15.2° C leicht bewölkt
So, 15.09. 9:00 14.0° C leicht bewölkt
So, 15.09. 8:30 12.9° C bedeckt
Ortszeit Relative Feuchte Sichtweite
So, 15.09. 8:00 71% 65 km
So, 15.09. 2:00 79% 50 km
Sa, 14.09. 20:00 76% 55 km
Sa, 14.09. 14:00 57% 45 km
Sa, 14.09. 8:00 72% 45 km
Sa, 14.09. 2:00 69% 40 km
Fr, 13.09. 20:00 62% 45 km
Fr, 13.09. 14:00 60% 50 km
Ortszeit Relative Feuchte Sichtweite
So, 15.09. 11:40 70% -
So, 15.09. 11:30 68% >70 km
So, 15.09. 11:20 68% -
So, 15.09. 11:10 68% -
So, 15.09. 11:00 70% 50 km
So, 15.09. 10:50 70% -
So, 15.09. 10:30 69% >70 km
So, 15.09. 10:00 67% 40 km
So, 15.09. 9:30 64% 60 km
So, 15.09. 9:00 67% 55 km
So, 15.09. 8:30 69% 65 km
Ortszeit Niederschlagsmenge Niederschlagsart
So, 15.09. 8:00 0.0 l/m2 in 12 Std. -
So, 15.09. 2:00 0.0 l/m2 in 6 Std. -
Sa, 14.09. 20:00 0.0 l/m2 in 12 Std. -
Sa, 14.09. 14:00 0.0 l/m2 in 6 Std. -
Sa, 14.09. 8:00 0.0 l/m2 in 12 Std. -
Sa, 14.09. 2:00 0.0 l/m2 in 6 Std. -
Fr, 13.09. 20:00 0.3 l/m2 in 12 Std. -
Fr, 13.09. 14:00 0.3 l/m2 in 6 Std. Regen
Ortszeit Niederschlagsmenge Niederschlagsart
So, 15.09. 11:40 keine Meldung -
So, 15.09. 11:30 0.0 l/m2 in 1 Std. -
So, 15.09. 11:20 keine Meldung -
So, 15.09. 11:10 keine Meldung -
So, 15.09. 11:00 0.0 l/m2 in 1 Std. -
So, 15.09. 10:50 keine Meldung -
So, 15.09. 10:30 0.0 l/m2 in 1 Std. -
So, 15.09. 10:00 0.0 l/m2 in 1 Std. -
So, 15.09. 9:30 0.0 l/m2 in 1 Std. -
So, 15.09. 9:00 0.0 l/m2 in 1 Std. -
So, 15.09. 8:30 0.0 l/m2 in 1 Std. -
Ortszeit Stärke Spitze Richtung
km/h Bft. km/h Grad Sektor
So, 15.09. 8:00 40 6 58 230° SW
So, 15.09. 2:00 25 4 40 220° SW
Sa, 14.09. 20:00 22 4 47 240° SW
Sa, 14.09. 14:00 36 5 43 270° W
Sa, 14.09. 8:00 22 4 48 290° W
Sa, 14.09. 2:00 28 4 48 290° W
Fr, 13.09. 20:00 28 4 52 300° NW
Fr, 13.09. 14:00 32 5 61 300° NW
Ortszeit Stärke Spitze Richtung
km/h Bft. km/h Grad Sektor
So, 15.09. 11:40 56 7 - 250° W
So, 15.09. 11:30 54 7 72 250° W
So, 15.09. 11:20 54 7 - 250° W
So, 15.09. 11:10 50 7 - 250° W
So, 15.09. 11:00 37 5 59 240° SW
So, 15.09. 10:50 37 5 - 240° SW
So, 15.09. 10:30 39 6 59 240° SW
So, 15.09. 10:00 47 6 65 240° SW
So, 15.09. 9:30 46 6 63 240° SW
So, 15.09. 9:00 41 6 57 240° SW
So, 15.09. 8:30 37 5 52 230° SW
Ortszeit Untergrenze Bedeckung Gattung
total tief tief mittel hoch
So, 15.09. 8:00 6600 m 8/8 8/8 - - -
So, 15.09. 2:00 9000 m 8/8 0/8 - - -
Sa, 14.09. 20:00 10500 m 1/8 0/8 - - -
Sa, 14.09. 14:00 1020 m 3/8 1/8 - - -
Sa, 14.09. 8:00 720 m 3/8 1/8 - - -
Sa, 14.09. 2:00 750 m 1/8 1/8 - - -
Fr, 13.09. 20:00 1410 m 8/8 4/8 - - -
Fr, 13.09. 14:00 1110 m 2/8 2/8 - - -
Ortszeit Bedeckungsgrad in Achtel und Wolkenuntergrenze
So, 15.09. 11:40 5(870m) 8(3600m) 8(8400m)
So, 15.09. 11:30 1(990m) 6(3600m)
So, 15.09. 11:20 1(990m) 6(3600m)
So, 15.09. 11:10 1(990m) 3(3600m) 3(8700m)
So, 15.09. 11:00 1(990m)
So, 15.09. 10:50 keine Wolken
So, 15.09. 10:30 1(7800m) 4(9000m)
So, 15.09. 10:00 4(7200m) 6(8100m) 7(9000m)
So, 15.09. 9:30 1(7500m) 3(8700m) 6(9000m)
So, 15.09. 9:00 4(7200m) 5(8400m) 4(9000m)
So, 15.09. 8:30 8(6900m)
Ortszeit Luftdruck NN (hPa) Tendenz (hPa in 3 Std.)
So, 15.09. 8:00 1016 - 3,9
So, 15.09. 2:00 1024 - 2,8
Sa, 14.09. 20:00 1029 - 1,3
Sa, 14.09. 14:00 1032 - 0,7
Sa, 14.09. 8:00 1032 + 0,2
Sa, 14.09. 2:00 1032 + 0,7
Fr, 13.09. 20:00 1030 + 1,1
Fr, 13.09. 14:00 1027 + 2,5
Ortszeit Luftdruck NN (hPa) Tendenz (hPa in 3 Std.)
So, 15.09. 11:40 1014 keine Meldung
So, 15.09. 11:30 1014 - 1,7
So, 15.09. 11:20 1014 keine Meldung
So, 15.09. 11:10 1014 keine Meldung
So, 15.09. 11:00 1015 - 1,6
So, 15.09. 10:50 1015 keine Meldung
So, 15.09. 10:30 1015 - 2,2
So, 15.09. 10:00 1015 - 2,1
So, 15.09. 9:30 1015 - 3,1
So, 15.09. 9:00 1016 - 3,4
So, 15.09. 8:30 1016 - 3,7
Ortszeit Schneehöhe (cm)
So, 15.09. 8:00 -
So, 15.09. 2:00 -
Sa, 14.09. 20:00 -
Sa, 14.09. 14:00 -
Sa, 14.09. 8:00 -
Sa, 14.09. 2:00 -
Fr, 13.09. 20:00 -
Fr, 13.09. 14:00 -
Ortszeit Schneehöhe (cm)
So, 15.09. 11:40 -
So, 15.09. 11:30 -
So, 15.09. 11:20 -
So, 15.09. 11:10 -
So, 15.09. 11:00 -
So, 15.09. 10:50 -
So, 15.09. 10:30 -
So, 15.09. 10:00 -
So, 15.09. 9:30 -
So, 15.09. 9:00 -
So, 15.09. 8:30 -
Link zu dieser Seite / Seite empfehlen

Das Wetter in ...